x

9441102 - Westport, Wa (wptw1) Weather Station

1:36am - Tue 21st Nov 2017 All times are PST. -8 hours from GMT.

  • Wind
    18mph, 25mph gusts
  • Sea Temp 51°f
  • Air Temp 43°f
  • Sea Pressure 1014.2mb
  • 9441102 - Westport, Wa
  • 9441102 - Westport, Wa

More Historic Weather Station data

Upgrade to MSW Pro to gain access to the past 30 days of data for over 8000 Wavebouys and Weather Stations around the globe.

Join

Comparision Forecast

View Surf forecast
   
Tue 11/21 1:36am 18 25 mph 1014.2mb 51f 43f
1:30am 17 23 mph 1014.2mb 51f 43f
1:24am 20 25 mph 1014.1mb 51f 43f
1:18am 22 28 mph 1014.1mb 51f 43f
1:12am 22 26 mph 1014.3mb 51f 43f
1:06am 22 29 mph 1014.2mb 51f 43f
1:00am 22 30 mph 1014.3mb 51f 43f
12:36am 22 29 mph 1014.8mb 50f 43f
12:30am 21 26 mph 1014.9mb 50f 43f
12:24am 20 25 mph 1014.9mb 50f 43f
12:18am 18 23 mph 1014.9mb 49f 43f
12:12am 22 25 mph 1015mb 49f 43f
12:06am 21 23 mph 1015.1mb 49f 43f
12:00am 18 24 mph 1015.1mb 49f 43f
Mon 11/20 11:36pm 17 22 mph 1015mb 49f 43f
11:30pm 14 20 mph 1015.2mb 50f 42f
11:24pm 13 16 mph 1015.4mb 50f 42f
11:18pm 13 23 mph 1015.3mb 50f 42f
11:12pm 18 23 mph 1015.4mb 50f 43f
11:06pm 18 25 mph 1015.3mb 50f 43f
11:00pm 18 25 mph 1015.4mb 50f 43f
10:36pm 20 26 mph 1015.5mb 50f 43f
10:30pm 18 23 mph 1015.6mb 50f 43f
10:24pm 18 22 mph 1015.7mb 50f 43f
10:18pm 16 23 mph 1015.9mb 50f 42f
10:12pm 17 22 mph 1015.8mb 50f 42f
10:06pm 16 22 mph 1016.1mb 50f 42f
10:00pm 17 21 mph 1016.1mb 50f 42f
9:36pm 20 26 mph 1016.7mb 50f 42f
9:30pm 14 18 mph 1016.8mb 50f 42f
9:24pm 15 18 mph 1016.7mb 50f 42f
9:18pm 13 16 mph 1016.6mb 50f 42f
9:12pm 11 15 mph 1016.3mb 50f 42f
9:06pm 10 13 mph 1016.2mb 50f 42f
9:00pm 10 13 mph 1016.1mb 50f 42f
8:36pm 8 10 mph 1016mb 50f 42f
8:30pm 8 10 mph 1015.9mb 50f 42f
8:24pm 10 11 mph 1015.8mb 50f 42f
8:18pm 8 9 mph 1015.7mb 50f 42f
8:12pm 9 10 mph 1015.5mb 50f 42f
8:06pm 9 10 mph 1015.5mb 50f 42f
8:00pm 8 9 mph 1015.8mb 50f 42f
7:36pm 9 10 mph 1015.6mb 50f 43f
7:30pm 7 8 mph 1015.6mb 50f 44f
7:24pm 7 7 mph 1015.3mb 50f 43f
7:18pm 7 7 mph 1015.3mb 50f 44f
7:12pm 6 7 mph 1015.3mb 50f 44f
7:06pm 8 8 mph 1015.3mb 50f 46f
7:00pm 8 8 mph 1015mb 50f 46f
6:36pm 8 8 mph 1014.7mb 50f 45f
6:30pm 7 8 mph 1014.9mb 50f 43f
6:24pm 7 8 mph 1015mb 50f 45f
6:18pm 8 9 mph 1014.7mb 50f 43f
6:12pm 7 8 mph 1014.3mb 50f 45f
6:06pm 7 7 mph 1014.2mb 50f 45f
6:00pm 6 7 mph 1014.3mb 50f 48f
5:36pm 8 9 mph 1014.3mb 50f 45f
5:30pm 6 7 mph 1014.1mb 50f 47f
5:24pm 7 7 mph 1014mb 50f 47f
5:18pm 7 7 mph 1013.9mb 50f 47f
5:12pm 6 6 mph 1013.9mb 50f 47f
5:06pm 6 7 mph 1013.9mb 50f 47f
5:00pm 5 6 mph 1013.9mb 50f 48f
4:36pm 1 1 mph 1013.6mb 50f 48f
4:30pm 1 2 mph 1013.6mb 50f 48f
4:24pm 2 3 mph 1013.4mb 50f 48f
4:18pm 2 3 mph 1013.4mb 50f 49f
4:12pm 2 5 mph 1013.2mb 50f 49f
4:06pm 3 5 mph 1013.2mb 50f 49f
4:00pm 3 6 mph 1013.2mb 50f 49f
3:36pm 6 7 mph 1013.1mb 50f 50f
3:30pm 6 8 mph 1012.9mb 51f 50f
3:24pm 8 9 mph 1012.9mb 51f 50f
3:18pm 7 8 mph 1012.7mb 51f 50f
3:12pm 8 10 mph 1012.6mb 51f 51f
3:06pm 9 10 mph 1012.4mb 51f 51f
3:00pm 9 10 mph 1012.4mb 51f 51f
2:36pm 9 13 mph 1012.4mb 51f 51f
2:30pm 10 11 mph 1012.3mb 51f 51f
2:24pm 10 13 mph 1012.3mb 51f 51f
2:18pm 13 14 mph 1012.2mb 51f 51f
2:12pm 13 15 mph 1012.2mb 51f 51f
2:06pm 11 13 mph 1012.1mb 51f 51f
2:00pm 11 14 mph 1012.2mb 51f 51f
1:36pm 11 16 mph 1011.7mb 51f 50f
1:30pm 14 16 mph 1011.5mb 51f 50f
1:24pm 14 15 mph 1011.3mb 51f 50f
1:18pm 14 16 mph 1011.1mb 51f 51f
1:12pm 14 16 mph 1011mb 51f 51f
1:06pm 15 17 mph 1010.5mb 51f 51f
1:00pm 15 18 mph 1010.7mb 51f 51f
12:36pm 17 20 mph 1010.3mb 51f 51f
12:30pm 17 18 mph 1010.3mb 51f 50f
12:24pm 15 17 mph 1010.1mb 51f 51f
12:18pm 16 21 mph 1010mb 51f 50f
12:12pm 17 22 mph 1009.9mb 51f 51f
12:06pm 14 18 mph 1009.9mb 51f 51f
12:00pm 18 21 mph 1009.1mb 51f 50f
11:36am 18 21 mph 1008.8mb 51f 50f
11:30am 18 21 mph 1008.9mb 50f 50f
11:24am 18 22 mph 1008.9mb 51f 49f
11:18am 16 18 mph 1008.8mb 51f 49f
11:12am 16 18 mph 1008.6mb 51f 49f
11:06am 17 20 mph 1008.5mb 51f 49f
11:00am 16 18 mph 1008.4mb 51f 49f
10:36am 16 18 mph 1007.6mb 51f 49f
10:30am 16 18 mph 1007.2mb 51f 49f
10:24am 16 20 mph 1007mb 51f 49f
10:18am 16 21 mph 1006.9mb 51f 49f
10:12am 15 17 mph 1006.8mb 51f 49f
10:06am 16 20 mph 1006.7mb 51f 49f
10:00am 16 18 mph 1006.5mb 51f 49f
9:36am 16 20 mph 1005.9mb 51f 49f
9:30am 16 22 mph 1005.8mb 51f 49f
9:24am 18 23 mph 1005.4mb 51f 49f
9:18am 17 22 mph 1005mb 51f 49f
9:12am 20 24 mph 1004.6mb 51f 50f
9:06am 20 22 mph 1004.4mb 51f 49f
9:00am 17 22 mph 1004.3mb 51f 49f
8:36am 22 24 mph 1003.9mb 51f 49f
8:30am 20 25 mph 1003.3mb 51f 49f
8:24am 23 26 mph 1002.9mb 51f 49f
8:18am 21 25 mph 1002.9mb 51f 49f
8:12am 23 26 mph 1002.9mb 51f 49f
8:06am 24 28 mph 1002.8mb 51f 49f
8:00am 22 26 mph 1002.6mb 51f 49f
7:36am 17 20 mph 1001.7mb 51f 48f
7:30am 17 20 mph 1001.6mb 51f 48f
7:24am 17 20 mph - - 48f
7:18am 11 14 mph 1002mb 51f 48f
7:12am 13 15 mph 1001.4mb 51f 48f
7:06am 15 18 mph 1000.8mb 51f 47f
7:00am 15 18 mph 1000.6mb 51f 47f
6:36am 17 22 mph 1000.5mb 50f 47f
6:30am 20 22 mph 1000.3mb 50f 47f
6:24am 22 25 mph 1000.4mb 50f 47f
6:18am 22 26 mph 1000.1mb 50f 47f
6:12am 24 26 mph 1000.1mb 51f 47f
6:06am 22 28 mph 1000.1mb 51f 48f
6:00am 25 29 mph 999.9mb 51f 48f
5:36am 22 28 mph 999.3mb 51f 48f
5:30am 24 31 mph 999mb 51f 48f
5:24am 25 29 mph 999.3mb 51f 48f
5:18am 24 29 mph 999mb 51f 48f
5:12am 20 24 mph 999.4mb 51f 48f
5:06am 22 25 mph 999.3mb 51f 48f
5:00am 22 25 mph 999.2mb 51f 48f
4:36am 16 18 mph 998.4mb 51f 48f
4:30am 13 17 mph 998.6mb 51f 49f
4:24am 16 18 mph 998.7mb 51f 49f
4:18am 14 15 mph 998.7mb 51f 49f
4:12am 11 13 mph 998.8mb 51f 49f
4:06am 13 14 mph 998.8mb 51f 49f
4:00am 13 14 mph 998.9mb 51f 49f
3:36am 13 14 mph 999.1mb 51f 49f
3:30am 10 13 mph 999.3mb 51f 50f
3:24am 11 14 mph 999.3mb 51f 50f
3:18am 11 13 mph 999.3mb 51f 49f
3:12am 11 11 mph 999.4mb 51f 49f
3:06am 8 8 mph 999.3mb 51f 50f
3:00am 7 7 mph 999.4mb 51f 50f
2:54am 6 8 mph 999.5mb 51f 50f
2:48am 7 8 mph 999.5mb 51f 50f
2:36am 9 13 mph 999.7mb 51f 50f
2:30am 11 13 mph 999.7mb 51f 50f
2:24am 10 14 mph 999.7mb 51f 50f
2:18am 10 15 mph 999.7mb 51f 51f
2:12am 17 29 mph 999.6mb 51f 52f
2:06am 23 31 mph 999.5mb 51f 52f
2:00am 21 31 mph 999.5mb 51f 52f
1:54am 22 28 mph 999.5mb 51f 52f
1:48am 20 28 mph 999.5mb 51f 52f
1:36am 18 29 mph 999.7mb 51f 52f
1:30am 21 32 mph 999.7mb 51f 52f
1:24am 21 32 mph 999.8mb 51f 52f
1:18am 22 29 mph 999.8mb 51f 52f
1:12am 22 30 mph 999.9mb 51f 52f
1:06am 22 30 mph 999.8mb 51f 52f
1:00am 23 32 mph 999.9mb 51f 52f
12:54am 21 28 mph 999.9mb 51f 51f
12:48am 21 29 mph 1000.1mb 51f 51f
12:36am 22 31 mph 1000.2mb 51f 52f
12:30am 23 32 mph 1000.3mb 51f 52f
12:24am 22 29 mph 1000.4mb 51f 52f
12:18am 22 32 mph 1000.5mb 50f 52f
12:12am 22 30 mph 1000.5mb 50f 52f
12:06am 22 29 mph 1000.7mb 50f 52f
12:00am 24 30 mph 1000.7mb 50f 52f
Sun 11/19 11:54pm 24 31 mph 1000.7mb 50f 52f
11:48pm 25 32 mph 1000.7mb 50f 52f
11:36pm 22 30 mph 1000.9mb 50f 52f
11:30pm 25 33 mph 1000.8mb 50f 52f
11:24pm 24 37 mph 1000.7mb 50f 52f
11:18pm 25 33 mph 1000.6mb 50f 52f
11:12pm 26 33 mph 1000.6mb 50f 52f
11:06pm 28 34 mph 1000.6mb 50f 52f
11:00pm 28 37 mph 1000.6mb 50f 52f
10:54pm 25 34 mph 1000.5mb 50f 52f
10:48pm 26 34 mph 1000.5mb 50f 51f
10:36pm 26 40 mph 1000.5mb 50f 51f
10:30pm 25 33 mph 1000.5mb 50f 51f
10:24pm 26 39 mph 1000.5mb 50f 51f
10:18pm 29 37 mph 1000.5mb 50f 51f
10:12pm 25 34 mph 1000.5mb 50f 51f
10:06pm 26 34 mph 1000.4mb 50f 52f
10:00pm 25 34 mph 1000.5mb 50f 51f
9:54pm 25 37 mph 1000.5mb 50f 51f
9:48pm 23 37 mph 1000.4mb 50f 51f
9:36pm 25 32 mph 1000.4mb 50f 51f
9:30pm 25 33 mph 1000.4mb 50f 51f
9:24pm 22 34 mph 1000.4mb 50f 51f
9:18pm 29 44 mph 1000.4mb 50f 51f
9:12pm 24 34 mph 1000.3mb 50f 51f
9:06pm 28 38 mph 1000.3mb 50f 51f
9:00pm 26 38 mph 1000.3mb 50f 51f
8:54pm 25 39 mph 1000.3mb 50f 51f
8:48pm 26 39 mph 1000.2mb 50f 51f
8:36pm 28 39 mph 1000.2mb 50f 51f
8:30pm 29 39 mph 1000.3mb 50f 51f
8:24pm 29 37 mph 1000.3mb 50f 51f
8:18pm 29 40 mph 1000.3mb 50f 51f
8:12pm 26 38 mph 1000.2mb 50f 51f
8:06pm 25 40 mph 1000.1mb 50f 50f
8:00pm 24 37 mph 1000.3mb 50f 50f
7:54pm 25 37 mph 1000.3mb 50f 50f
7:48pm 22 37 mph 1000.3mb 50f 50f
7:36pm 28 37 mph 1000.3mb 50f 50f
7:30pm 24 38 mph 1000.3mb 50f 50f
7:24pm 26 40 mph 1000.4mb 50f 50f
7:18pm 24 37 mph 1000.3mb 50f 50f
7:12pm 28 38 mph 1000.5mb 50f 50f
7:06pm 28 37 mph 1000.7mb 50f 50f
7:00pm 26 40 mph 1000.6mb 50f 49f
6:54pm 26 39 mph 1000.5mb 50f 49f
6:48pm 26 37 mph 1000.6mb 50f 49f
6:36pm 25 41 mph 1000.3mb 50f 49f
6:30pm 28 43 mph 1000.4mb 50f 49f
6:24pm 25 33 mph 1000.4mb 50f 49f
6:18pm 24 37 mph 1000.8mb 50f 49f
6:12pm 24 45 mph 1001mb 50f 49f
6:06pm 25 39 mph 1001.4mb 50f 49f
6:00pm 21 33 mph 1001.4mb 50f 49f
5:54pm 26 37 mph 1001.6mb 50f 49f
5:48pm 26 37 mph 1001.7mb 50f 49f
5:36pm 24 34 mph 1002mb 50f 49f
5:30pm 21 38 mph 1002.3mb 50f 49f
5:24pm 28 44 mph 1002.2mb 50f 49f
5:18pm 24 37 mph 1002.3mb 50f 49f
5:12pm 28 40 mph 1002.6mb 50f 49f
5:06pm 29 38 mph 1002.8mb 50f 49f
5:00pm 21 34 mph 1002.9mb 50f 49f
4:54pm 22 33 mph 1002.7mb 50f 49f
4:48pm 24 40 mph 1002.9mb 50f 48f
4:36pm 23 39 mph 1003.2mb 50f 48f
4:30pm 29 38 mph 1003.2mb 50f 48f
4:24pm 25 39 mph 1003.5mb 50f 48f
4:18pm 24 39 mph 1003.6mb 50f 48f
4:12pm 26 37 mph 1003.8mb 50f 48f
4:06pm 22 34 mph 1004.1mb 50f 48f
4:00pm 23 38 mph 1004.1mb 50f 48f
3:54pm 25 37 mph 1004.3mb 50f 48f
3:48pm 25 38 mph 1004.4mb 50f 48f
3:36pm 23 37 mph 1004.6mb 50f 48f
3:30pm 23 36 mph 1004.3mb 50f 48f
3:24pm 25 38 mph 1004.5mb 50f 48f
3:18pm 25 38 mph 1004.5mb 50f 48f
3:12pm 25 37 mph 1004.7mb 50f 48f
3:06pm 24 36 mph 1004.8mb 50f 48f
3:00pm 26 38 mph 1004.8mb 50f 48f
2:54pm 24 40 mph 1005.1mb 50f 48f
2:48pm 25 37 mph 1005.1mb 50f 48f
2:36pm 22 37 mph 1005.5mb 50f 48f
2:30pm 24 39 mph 1005.4mb 50f 48f
2:24pm 21 34 mph 1005.6mb 50f 48f
2:18pm 23 43 mph 1005.9mb 50f 48f
2:12pm 23 36 mph 1005.8mb 50f 48f
2:06pm 25 36 mph 1006mb 50f 48f
2:00pm 26 38 mph 1005.9mb 50f 48f
1:54pm 23 36 mph 1006.1mb 50f 49f
1:48pm 24 34 mph 1006.5mb 50f 49f
1:36pm 26 41 mph 1006.8mb 50f 49f
1:30pm 22 39 mph 1006.9mb 50f 49f
1:24pm 25 37 mph 1007.1mb 50f 48f
1:18pm 21 33 mph 1007.3mb 50f 48f
1:12pm 23 31 mph 1007.4mb 50f 48f
1:06pm 18 34 mph 1007.6mb 50f 48f
1:00pm 25 37 mph 1007.6mb 50f 48f
12:54pm 25 41 mph 1007.7mb 50f 49f
12:48pm 25 38 mph 1008mb 50f 49f
12:36pm 22 33 mph 1008.2mb 50f 48f
12:30pm 20 33 mph 1008.3mb 50f 47f
12:24pm 23 33 mph 1008.3mb 50f 47f
12:18pm 21 29 mph 1008.6mb 50f 47f
12:12pm 18 30 mph 1008.7mb 50f 47f
12:06pm 20 29 mph 1008.8mb 50f 47f
12:00pm 20 31 mph 1008.7mb 51f 47f
11:54am 16 32 mph 1008.9mb 51f 47f
11:48am 18 28 mph 1009.2mb 51f 47f
11:36am 16 26 mph 1009.5mb 51f 46f
11:30am 17 29 mph 1009.7mb 51f 47f
11:24am 16 23 mph 1009.7mb 51f 46f
11:18am 16 30 mph 1009.8mb 51f 47f
11:12am 15 26 mph 1009.9mb 51f 47f
11:06am 21 31 mph 1010.1mb 51f 47f
11:00am 17 29 mph 1010.2mb 51f 47f
10:54am 20 31 mph 1010.4mb 51f 47f
10:48am 18 30 mph 1010.4mb 51f 47f
10:36am 15 32 mph 1010.7mb 51f 47f
10:30am 15 23 mph 1010.9mb 51f 47f
10:24am 14 28 mph 1011mb 51f 47f
10:18am 18 30 mph 1011.2mb 51f 47f
10:12am 18 25 mph 1011.2mb 51f 46f
10:06am 20 30 mph 1011.4mb 51f 46f
10:00am 17 32 mph 1011.5mb 51f 46f
9:54am 16 24 mph 1011.5mb 51f 46f
9:48am 21 29 mph 1011.6mb 51f 46f
9:36am 14 28 mph 1011.7mb 50f 46f
9:30am 21 32 mph 1011.6mb 50f 46f
9:24am 15 23 mph 1011.8mb 50f 46f
9:18am 18 28 mph 1011.8mb 50f 46f
9:12am 16 26 mph 1012mb 50f 46f
9:06am 15 26 mph 1011.9mb 50f 46f
9:00am 15 30 mph 1012mb 50f 46f
8:54am 18 29 mph 1012.1mb 50f 46f
8:48am 17 28 mph 1012.2mb 50f 46f
8:36am 21 29 mph 1012.4mb 50f 46f
8:30am 20 28 mph 1012.4mb 50f 46f
8:24am 20 29 mph 1012.5mb 50f 46f
8:18am 15 26 mph 1012.7mb 51f 45f
8:12am 20 29 mph 1012.7mb 51f 45f
8:06am 16 25 mph 1012.7mb 51f 45f
8:00am 16 26 mph 1012.8mb 51f 45f
7:54am 17 25 mph 1012.8mb 51f 45f
7:48am 16 25 mph 1013mb 51f 45f
7:36am 17 24 mph 1013.3mb 51f 45f
7:30am 16 25 mph 1013.4mb 51f 45f
7:24am 18 26 mph 1013.4mb 51f 45f
7:18am 16 23 mph 1013.5mb 51f 45f
7:12am 15 24 mph 1013.6mb 51f 45f
7:06am 16 28 mph 1013.8mb 51f 45f
7:00am 16 28 mph 1013.9mb 51f 46f
6:54am 18 28 mph 1013.8mb 51f 46f
6:48am 20 30 mph 1014mb 51f 46f